createdAt,value
2017-12-04T00:04:42.638Z,1.98
2017-12-04T00:10:46.275Z,2.07
2017-12-04T00:16:49.877Z,2.10
2017-12-04T00:22:53.732Z,2.15
2017-12-04T00:28:58.232Z,2.16
2017-12-04T00:35:01.787Z,2.10
2017-12-04T00:41:05.423Z,2.12
2017-12-04T00:47:09.009Z,2.10
2017-12-04T00:53:13.314Z,2.01
2017-12-04T00:59:16.844Z,2.09
2017-12-04T01:05:20.616Z,2.14
2017-12-04T01:11:24.178Z,2.16
2017-12-04T01:17:27.732Z,2.05
2017-12-04T01:23:31.335Z,1.96
2017-12-04T01:29:34.951Z,1.97
2017-12-04T01:35:38.613Z,2.06
2017-12-04T01:41:42.149Z,2.18
2017-12-04T01:47:46.552Z,2.08
2017-12-04T01:53:50.130Z,2.22
2017-12-04T01:59:54.408Z,2.34
2017-12-04T02:05:58.274Z,2.32
2017-12-04T02:12:01.878Z,2.46
2017-12-04T02:18:05.416Z,2.77
2017-12-04T02:24:09.722Z,2.79
2017-12-04T02:30:13.233Z,2.87
2017-12-04T02:36:17.539Z,3.06
2017-12-04T02:42:21.164Z,3.04
2017-12-04T02:48:25.584Z,3.04
2017-12-04T02:54:29.462Z,3.18
2017-12-04T03:00:33.108Z,3.13
2017-12-04T03:06:37.627Z,3.01
2017-12-04T03:12:41.991Z,2.88
2017-12-04T03:18:45.588Z,2.69
2017-12-04T03:24:49.130Z,2.53
2017-12-04T03:30:52.826Z,2.48
2017-12-04T03:36:56.373Z,2.56
2017-12-04T03:42:59.953Z,2.68
2017-12-04T03:49:03.519Z,2.74
2017-12-04T03:55:07.235Z,2.72
2017-12-04T04:01:10.802Z,2.66
2017-12-04T04:07:14.582Z,2.73
2017-12-04T04:13:18.159Z,2.74
2017-12-04T04:19:21.750Z,2.75
2017-12-04T04:25:26.219Z,2.71
2017-12-04T04:31:30.522Z,2.73
2017-12-04T04:37:34.092Z,2.72
2017-12-04T04:43:37.741Z,2.77
2017-12-04T04:49:42.041Z,2.71
2017-12-04T04:55:45.588Z,2.72
2017-12-04T05:01:49.137Z,2.78
2017-12-04T05:07:52.870Z,2.85
2017-12-04T05:13:56.413Z,2.87
2017-12-04T05:19:59.952Z,2.87
2017-12-04T05:26:04.278Z,3.05
2017-12-04T05:32:07.802Z,3.10
2017-12-04T05:38:11.401Z,3.37
2017-12-04T05:44:14.915Z,3.33
2017-12-04T05:50:18.566Z,3.37
2017-12-04T05:56:22.289Z,3.43
2017-12-04T06:02:26.289Z,3.45
2017-12-04T06:08:29.835Z,3.44
2017-12-04T06:14:34.355Z,3.47
2017-12-04T06:20:37.901Z,3.54
2017-12-04T06:26:41.434Z,3.55
2017-12-04T06:32:46.734Z,3.63
2017-12-04T06:38:50.501Z,3.58
2017-12-04T06:44:54.357Z,3.55
2017-12-04T06:50:58.047Z,3.53
2017-12-04T06:57:01.933Z,3.58
2017-12-04T07:03:05.593Z,3.64
2017-12-04T07:09:09.248Z,3.62
2017-12-04T07:15:12.815Z,3.64
2017-12-04T07:21:17.221Z,3.74
2017-12-04T07:27:22.332Z,3.87
2017-12-04T07:33:26.403Z,3.85
2017-12-04T07:39:30.063Z,3.86
2017-12-04T07:45:33.611Z,3.94
2017-12-04T07:51:37.455Z,4.01
2017-12-04T07:57:41.298Z,4.04
2017-12-04T08:03:46.010Z,3.96
2017-12-04T08:09:49.526Z,3.99
2017-12-04T08:15:53.105Z,4.04
2017-12-04T08:21:57.406Z,4.12
2017-12-04T08:28:01.718Z,4.19
2017-12-04T08:34:06.109Z,4.25
2017-12-04T08:40:10.426Z,4.31
2017-12-04T08:46:13.964Z,4.31
2017-12-04T08:52:17.501Z,4.32
2017-12-04T08:58:21.841Z,4.35
2017-12-04T09:04:26.224Z,4.32
2017-12-04T09:10:29.883Z,4.39
2017-12-04T09:16:34.198Z,4.39
2017-12-04T09:22:37.734Z,4.52
2017-12-04T09:28:42.021Z,4.50
2017-12-04T09:34:45.776Z,4.45
2017-12-04T09:40:49.571Z,4.43
2017-12-04T09:46:53.256Z,4.47
2017-12-04T09:52:56.872Z,4.51
2017-12-04T09:59:00.398Z,4.54
2017-12-04T10:05:04.809Z,4.48
2017-12-04T10:11:08.377Z,4.56
2017-12-04T10:17:12.007Z,4.64
2017-12-04T10:23:15.568Z,4.59
2017-12-04T10:29:19.128Z,4.53
2017-12-04T10:35:24.296Z,4.50
2017-12-04T10:41:27.950Z,4.51
2017-12-04T10:47:31.495Z,4.56
2017-12-04T10:53:35.794Z,4.72
2017-12-04T10:59:39.431Z,4.93
2017-12-04T11:05:43.045Z,5.07
2017-12-04T11:11:46.587Z,5.13
2017-12-04T11:17:50.133Z,5.20
2017-12-04T11:23:54.083Z,5.09
2017-12-04T11:29:57.631Z,5.17
2017-12-04T11:36:01.344Z,5.22
2017-12-04T11:42:05.647Z,5.28
2017-12-04T11:48:09.931Z,5.31
2017-12-04T11:54:13.453Z,5.43
2017-12-04T12:00:17.049Z,5.41
2017-12-04T12:06:20.621Z,5.47
2017-12-04T12:12:24.324Z,5.43
2017-12-04T12:18:28.802Z,5.43
2017-12-04T12:24:32.340Z,5.42
2017-12-04T12:30:35.882Z,5.42
2017-12-04T12:36:39.414Z,5.38
2017-12-04T12:42:43.155Z,5.23
2017-12-04T12:48:46.728Z,4.99
2017-12-04T12:54:50.515Z,4.93
2017-12-04T13:00:54.470Z,4.74
2017-12-04T13:06:58.039Z,4.57
2017-12-04T13:13:01.596Z,4.57
2017-12-04T13:19:05.342Z,4.41
2017-12-04T13:25:08.862Z,4.32
2017-12-04T13:31:12.374Z,4.16
2017-12-04T13:37:21.693Z,4.10
2017-12-04T13:43:26.007Z,3.92
2017-12-04T13:49:29.541Z,3.92
2017-12-04T13:55:33.055Z,3.95
2017-12-04T14:01:36.585Z,4.05
2017-12-04T14:07:40.105Z,4.20
2017-12-04T14:13:43.691Z,4.04
2017-12-04T14:19:47.195Z,4.31
2017-12-04T14:25:51.473Z,4.28
2017-12-04T14:31:55.769Z,4.20
2017-12-04T14:37:59.267Z,4.19
2017-12-04T14:44:02.769Z,4.16
2017-12-04T14:50:06.278Z,4.36
2017-12-04T14:56:09.848Z,4.51
2017-12-04T15:02:13.370Z,4.55
2017-12-04T15:08:16.876Z,4.61
2017-12-04T15:14:20.363Z,4.67
2017-12-04T15:20:24.719Z,4.73
2017-12-04T15:26:28.237Z,4.84
2017-12-04T15:32:32.580Z,4.87
2017-12-04T15:38:36.148Z,4.89
2017-12-04T15:44:39.644Z,4.90
2017-12-04T15:50:43.158Z,5.00
2017-12-04T15:56:46.794Z,4.94
2017-12-04T16:02:50.309Z,4.95
2017-12-04T16:08:54.261Z,4.92
2017-12-04T16:14:59.373Z,4.90
2017-12-04T16:21:02.915Z,4.80
2017-12-04T16:27:07.282Z,4.71
2017-12-04T16:33:11.560Z,4.64
2017-12-04T16:39:15.843Z,4.60
2017-12-04T16:45:19.397Z,4.65
2017-12-04T16:51:23.101Z,4.60
2017-12-04T16:57:26.632Z,4.60
2017-12-04T17:03:30.144Z,4.69
2017-12-04T17:09:34.502Z,4.67
2017-12-04T17:15:38.054Z,4.64
2017-12-04T17:21:43.108Z,4.61
2017-12-04T17:27:46.655Z,4.52
2017-12-04T17:33:50.341Z,4.60
2017-12-04T17:39:54.238Z,4.57
2017-12-04T17:45:58.007Z,4.62
2017-12-04T17:52:02.340Z,4.59
2017-12-04T17:58:05.888Z,4.52
2017-12-04T18:04:09.484Z,4.49
2017-12-04T18:10:13.759Z,4.57
2017-12-04T18:16:18.074Z,4.57
2017-12-04T18:22:21.846Z,4.57
2017-12-04T18:28:25.451Z,4.57
2017-12-04T18:34:29.722Z,4.58
2017-12-04T18:40:34.025Z,4.49
2017-12-04T18:46:37.543Z,4.44
2017-12-04T18:52:41.937Z,4.33
2017-12-04T18:58:46.223Z,4.31
2017-12-04T19:04:49.766Z,4.34
2017-12-04T19:10:53.377Z,4.41
2017-12-04T19:16:57.136Z,4.43
2017-12-04T19:23:00.681Z,4.44
2017-12-04T19:29:04.206Z,4.43
2017-12-04T19:35:07.730Z,4.38
2017-12-04T19:41:11.998Z,4.47
2017-12-04T19:47:16.311Z,4.55
2017-12-04T19:53:19.856Z,4.64
2017-12-04T19:59:23.487Z,4.62
2017-12-04T20:05:27.741Z,4.63
2017-12-04T20:11:31.280Z,4.56
2017-12-04T20:17:34.917Z,4.60
2017-12-04T20:23:38.439Z,4.58
2017-12-04T20:29:41.964Z,4.57
2017-12-04T20:35:45.512Z,4.60
2017-12-04T20:41:49.027Z,4.62
2017-12-04T20:47:52.560Z,4.49
2017-12-04T20:53:56.408Z,4.43
2017-12-04T20:59:59.931Z,4.47
2017-12-04T21:06:03.443Z,4.51
2017-12-04T21:12:06.987Z,4.51
2017-12-04T21:18:10.543Z,4.60
2017-12-04T21:24:14.843Z,4.69
2017-12-04T21:30:18.354Z,4.65
2017-12-04T21:36:22.892Z,4.51
2017-12-04T21:42:26.452Z,4.37
2017-12-04T21:48:30.160Z,4.22
2017-12-04T21:54:33.702Z,4.35
2017-12-04T22:00:38.003Z,4.49
2017-12-04T22:06:41.506Z,4.70
2017-12-04T22:12:45.155Z,4.92
2017-12-04T22:18:48.900Z,5.03
2017-12-04T22:24:52.710Z,5.03
2017-12-04T22:30:56.991Z,5.12
2017-12-04T22:37:01.312Z,5.20
2017-12-04T22:43:04.854Z,5.14
2017-12-04T22:49:09.162Z,5.14
2017-12-04T22:55:12.676Z,5.21
2017-12-04T23:01:16.192Z,5.35
2017-12-04T23:07:19.694Z,5.41
2017-12-04T23:13:23.418Z,5.54
2017-12-04T23:19:27.075Z,5.56
2017-12-04T23:25:31.768Z,5.64
2017-12-04T23:31:35.267Z,5.70
2017-12-04T23:37:38.875Z,5.77
2017-12-04T23:43:42.456Z,5.83
2017-12-04T23:49:46.016Z,5.84
2017-12-04T23:55:49.593Z,5.88
